Time;durP1;ratioP1;P1;durP2;ratioP2;P2;SDS_P1;SDS_P2;PMS_P1;PMS_P2;Temp;Humidity;BMP_temperature;BMP_pressure;BME280_temperature;BME280_humidity;BME280_pressure;Samples;Min_cycle;Max_cycle;Signal;HPM_P1;HPM_P2
2022/09/16 00:01:47;;;;;;;4.55;0.90;;;;;;;12.44;93.33;100803.28;4993276;28;20427;-74
2022/09/16 00:04:12;;;;;;;2.05;0.70;;;;;;;12.42;93.77;100807.84;4989733;28;20499;-77
2022/09/16 00:06:38;;;;;;;4.78;0.70;;;;;;;12.41;93.79;100803.59;4990680;28;20518;-74
2022/09/16 00:09:03;;;;;;;5.30;0.80;;;;;;;12.38;94.05;100820.38;4982646;28;20042;-77
2022/09/16 00:11:33;;;;;;;4.15;0.77;;;;;;;12.36;93.90;100814.53;4989032;28;20057;-75
2022/09/16 00:13:59;;;;;;;8.82;1.17;;;;;;;12.35;93.53;100817.28;4981359;28;20121;-74
2022/09/16 00:16:26;;;;;;;4.85;0.80;;;;;;;12.35;93.65;100825.09;4988071;28;20398;-75
2022/09/16 00:18:56;;;;;;;5.40;0.75;;;;;;;12.34;93.30;100815.66;4971252;28;20039;-75
2022/09/16 00:21:23;;;;;;;6.70;0.93;;;;;;;12.27;93.85;100815.53;4988145;28;20053;-73
2022/09/16 00:23:49;;;;;;;5.13;0.60;;;;;;;12.30;93.14;100819.56;4990195;28;20045;-75
2022/09/16 00:26:14;;;;;;;8.80;1.10;;;;;;;12.25;93.66;100822.69;4995834;28;20041;-74
2022/09/16 00:28:40;;;;;;;5.82;1.08;;;;;;;12.21;93.94;100824.78;4989521;28;20034;-74
2022/09/16 00:31:05;;;;;;;5.45;0.82;;;;;;;12.20;94.18;100817.97;4971686;28;20084;-75
2022/09/16 00:33:31;;;;;;;7.07;0.90;;;;;;;12.17;94.12;100818.31;4987115;28;20030;-74
2022/09/16 00:36:04;;;;;;;9.50;1.50;;;;;;;12.15;94.30;100816.84;4987297;28;20046;-74
2022/09/16 00:38:30;;;;;;;4.82;1.10;;;;;;;12.13;94.28;100826.59;4987855;28;20076;-75
2022/09/16 00:40:55;;;;;;;5.15;0.88;;;;;;;12.12;94.70;100824.97;4988857;28;20038;-75
2022/09/16 00:43:21;;;;;;;3.05;0.68;;;;;;;12.14;95.18;100825.63;4989401;28;20039;-74
2022/09/16 00:45:54;;;;;;;4.82;1.00;;;;;;;12.12;95.20;100825.78;4981300;28;20050;-75
2022/09/16 00:48:21;;;;;;;;;;;;;;;12.13;95.36;100824.00;4988003;28;20419;-74
2022/09/16 00:50:50;;;;;;;6.18;1.33;;;;;;;12.12;95.38;100819.78;4989493;28;19917;-75
2022/09/16 00:53:22;;;;;;;10.82;1.85;;;;;;;12.13;95.43;100811.00;4989422;28;20062;-77
2022/09/16 00:55:49;;;;;;;9.77;0.75;;;;;;;12.10;95.43;100809.53;4973688;28;20117;-74
2022/09/16 00:58:24;;;;;;;5.18;1.15;;;;;;;12.12;95.55;100814.59;4983800;28;20060;-75
2022/09/16 01:00:49;;;;;;;7.72;0.90;;;;;;;12.18;95.32;100817.31;4986932;28;20057;-74
2022/09/16 01:03:15;;;;;;;5.28;1.13;;;;;;;12.16;95.20;100823.66;4988123;28;20483;-73
2022/09/16 01:05:43;;;;;;;9.23;1.75;;;;;;;12.22;94.55;100821.22;4971031;28;20034;-74
2022/09/16 01:08:09;;;;;;;7.10;0.85;;;;;;;12.13;95.27;100811.81;4968151;28;20038;-75
2022/09/16 01:10:34;;;;;;;4.05;1.67;;;;;;;12.10;95.72;100808.75;4987746;28;20044;-74
2022/09/16 01:13:05;;;;;;;3.90;1.00;;;;;;;12.11;95.69;100807.75;4972699;28;20027;-75
2022/09/16 01:15:43;;;;;;;4.68;0.98;;;;;;;12.11;95.96;100800.78;4987820;28;20034;-74
2022/09/16 01:18:29;;;;;;;6.22;1.20;;;;;;;12.10;96.09;100801.75;4986963;28;20042;-73
2022/09/16 01:21:10;;;;;;;4.97;1.55;;;;;;;12.14;95.67;100804.84;4980873;28;20215;-75
2022/09/16 01:24:02;;;;;;;8.43;0.88;;;;;;;12.15;95.31;100798.63;4983830;28;20035;-74
2022/09/16 01:26:56;;;;;;;4.03;0.85;;;;;;;12.12;95.76;100807.59;4967009;28;20101;-74
2022/09/16 01:29:58;;;;;;;3.70;1.60;;;;;;;12.09;95.65;100813.09;4982824;28;20423;-73
2022/09/16 01:32:24;;;;;;;4.40;0.97;;;;;;;12.13;95.13;100808.41;4989174;28;20116;-74
2022/09/16 01:35:10;;;;;;;6.35;1.50;;;;;;;12.17;94.81;100812.31;4969630;28;20023;-72
2022/09/16 01:37:59;;;;;;;11.70;0.95;;;;;;;12.04;94.82;100815.41;4983235;28;20045;-74
2022/09/16 01:40:27;;;;;;;8.15;1.27;;;;;;;12.01;95.05;100807.94;4982080;28;20448;-75
2022/09/16 01:43:14;;;;;;;4.30;0.80;;;;;;;12.03;94.87;100808.59;4987154;28;20034;-74
2022/09/16 01:45:55;;;;;;;2.65;0.95;;;;;;;12.00;95.67;100803.72;4987661;28;20555;-74
2022/09/16 01:48:39;;;;;;;6.57;1.30;;;;;;;11.98;96.02;100803.88;4986171;28;20117;-74
2022/09/16 01:51:21;;;;;;;2.20;1.27;;;;;;;12.03;96.13;100798.19;4987894;28;20038;-73
2022/09/16 01:54:06;;;;;;;2.95;1.00;;;;;;;12.03;96.14;100805.97;4982947;28;20030;-74
2022/09/16 01:56:43;;;;;;;5.82;1.30;;;;;;;12.04;96.48;100792.03;5001840;28;20046;-74
2022/09/16 01:59:24;;;;;;;4.53;1.33;;;;;;;12.16;95.64;100797.69;4983008;28;20509;-74
2022/09/16 02:01:58;;;;;;;5.65;2.05;;;;;;;12.09;95.00;100797.50;4984534;28;20038;-74
2022/09/16 02:04:31;;;;;;;4.72;1.20;;;;;;;12.10;95.28;100793.16;4985472;28;20117;-74
2022/09/16 02:06:58;;;;;;;;;;;;;;;12.08;95.80;100793.31;4981666;28;20189;-74
2022/09/16 02:09:34;;;;;;;4.40;0.90;;;;;;;12.07;96.27;100796.88;4984513;28;20386;-75
2022/09/16 02:12:05;;;;;;;10.27;2.00;;;;;;;12.06;96.48;100784.88;4985664;28;20829;-75
2022/09/16 02:14:37;;;;;;;4.45;1.10;;;;;;;12.05;96.45;100776.28;4982682;28;20172;-74
2022/09/16 02:17:09;;;;;;;7.07;2.15;;;;;;;12.15;96.54;100783.03;4983104;28;20632;-75
2022/09/16 02:19:45;;;;;;;1.90;1.00;;;;;;;12.12;96.61;100776.41;4984749;28;20041;-75
2022/09/16 02:22:15;;;;;;;1.75;0.90;;;;;;;12.10;96.77;100790.56;4985047;28;20054;-74
2022/09/16 02:24:45;;;;;;;3.97;1.20;;;;;;;12.04;97.34;100779.84;4986994;28;20530;-74
2022/09/16 02:27:16;;;;;;;6.30;1.60;;;;;;;12.03;97.76;100780.00;4986751;28;20120;-75
2022/09/16 02:29:47;;;;;;;4.78;1.58;;;;;;;12.01;97.80;100782.75;4976650;28;20031;-74
2022/09/16 02:32:14;;;;;;;3.67;1.70;;;;;;;11.99;97.93;100779.50;4999669;28;20077;-74
2022/09/16 02:34:44;;;;;;;8.30;1.60;;;;;;;11.99;98.07;100781.31;4985610;28;20034;-75
2022/09/16 02:37:17;;;;;;;7.13;1.60;;;;;;;12.01;97.61;100777.56;4986563;28;20056;-74
2022/09/16 02:39:46;;;;;;;5.25;1.30;;;;;;;11.97;97.52;100781.47;4967316;28;20034;-74
2022/09/16 02:42:12;;;;;;;6.35;1.70;;;;;;;11.95;97.22;100780.03;4983758;28;20030;-73
2022/09/16 02:44:38;;;;;;;6.03;1.55;;;;;;;11.91;97.53;100789.13;4982796;28;20427;-75
2022/09/16 02:47:22;;;;;;;5.88;1.50;;;;;;;11.88;97.51;100772.88;4999336;28;20030;-75
2022/09/16 02:50:13;;;;;;;5.68;1.48;;;;;;;11.83;97.59;100775.13;4986577;28;20042;-74
2022/09/16 02:53:03;;;;;;;7.32;1.30;;;;;;;11.82;97.49;100767.50;4976441;28;20081;-75
2022/09/16 02:56:00;;;;;;;3.10;1.50;;;;;;;11.75;97.61;100776.91;4985271;28;20054;-75
2022/09/16 02:58:26;;;;;;;8.30;1.85;;;;;;;11.69;98.15;100768.78;4967560;28;20050;-75
2022/09/16 03:00:54;;;;;;;8.20;1.70;;;;;;;11.69;98.36;100780.97;4988007;28;20037;-74
2022/09/16 03:03:20;;;;;;;4.97;1.42;;;;;;;11.71;98.86;100775.63;4982121;28;20034;-74
2022/09/16 03:06:05;;;;;;;11.35;2.03;;;;;;;11.70;98.33;100777.44;4986507;28;20097;-74
2022/09/16 03:08:31;;;;;;;4.10;1.70;;;;;;;11.67;98.59;100777.75;4984940;28;20553;-74
2022/09/16 03:11:07;;;;;;;8.52;1.92;;;;;;;11.67;98.87;100775.16;4985232;28;20052;-74
2022/09/16 03:14:14;;;;;;;6.85;1.70;;;;;;;11.66;99.03;100769.16;4985726;28;20910;-74
2022/09/16 03:16:51;;;;;;;3.22;1.90;;;;;;;11.67;99.18;100780.34;4960699;28;20039;-74
2022/09/16 03:19:30;;;;;;;9.70;1.73;;;;;;;11.63;99.26;100773.84;4987961;28;20034;-74
2022/09/16 03:22:05;;;;;;;9.55;2.10;;;;;;;11.66;98.99;100776.13;4984445;28;20049;-74
2022/09/16 03:25:06;;;;;;;11.65;2.42;;;;;;;11.77;99.04;100778.41;4969772;28;20049;-74
2022/09/16 03:27:41;;;;;;;4.35;1.77;;;;;;;11.77;98.67;100774.97;4977802;28;20061;-74
2022/09/16 03:30:09;;;;;;;8.27;1.90;;;;;;;11.66;99.47;100779.53;4976074;28;20065;-75
2022/09/16 03:32:41;;;;;;;9.38;2.92;;;;;;;11.57;99.93;100774.50;4986217;28;20104;-73
2022/09/16 03:35:33;;;;;;;6.25;2.22;;;;;;;11.55;99.95;100776.47;4985306;28;20038;-74
2022/09/16 03:38:00;;;;;;;5.72;1.70;;;;;;;11.54;100.00;100769.63;4981103;28;20129;-74
2022/09/16 03:40:28;;;;;;;14.85;2.35;;;;;;;11.47;100.00;100775.47;4990651;28;20525;-74
2022/09/16 03:42:56;;;;;;;8.32;2.50;;;;;;;11.54;100.00;100770.44;4990241;28;20034;-75
2022/09/16 03:45:22;;;;;;;8.80;2.25;;;;;;;11.48;100.00;100766.72;4989922;28;20089;-75
2022/09/16 03:47:48;;;;;;;10.05;2.10;;;;;;;11.50;100.00;100772.53;4966120;28;20042;-74
2022/09/16 03:50:15;;;;;;;7.75;2.30;;;;;;;11.44;100.00;100769.81;4969494;28;20031;-74
2022/09/16 03:52:41;;;;;;;12.02;3.33;;;;;;;11.42;100.00;100769.16;4990695;28;20061;-73
2022/09/16 03:55:07;;;;;;;7.47;2.13;;;;;;;11.39;100.00;100772.06;4991559;28;20495;-75
2022/09/16 03:57:33;;;;;;;8.40;3.58;;;;;;;11.52;100.00;100766.38;4988969;28;20775;-74
2022/09/16 03:59:58;;;;;;;9.77;2.28;;;;;;;11.45;99.86;100759.25;4987711;28;20046;-75
2022/09/16 04:02:24;;;;;;;9.07;2.60;;;;;;;11.45;100.00;100764.44;4991578;28;20026;-75
2022/09/16 04:04:50;;;;;;;13.20;2.40;;;;;;;11.30;100.00;100756.50;4990152;28;20035;-74
2022/09/16 04:07:16;;;;;;;13.95;2.25;;;;;;;11.24;100.00;100756.31;5002617;28;20133;-75
2022/09/16 04:09:41;;;;;;;10.88;2.40;;;;;;;11.25;100.00;100758.75;4992551;28;20546;-73
2022/09/16 04:12:07;;;;;;;6.75;2.10;;;;;;;11.25;100.00;100752.75;4974938;28;20034;-74
2022/09/16 04:14:34;;;;;;;7.28;2.03;;;;;;;11.24;100.00;100758.91;4990617;28;20018;-74
2022/09/16 04:16:59;;;;;;;5.28;2.17;;;;;;;11.22;100.00;100751.28;4988107;28;20038;-73
2022/09/16 04:19:25;;;;;;;7.72;2.40;;;;;;;11.25;100.00;100750.16;4989697;28;20034;-75
2022/09/16 04:21:50;;;;;;;8.95;1.80;;;;;;;11.24;100.00;100753.72;4989813;28;20045;-75
2022/09/16 04:24:16;;;;;;;9.32;2.10;;;;;;;11.22;100.00;100743.50;4989237;28;20034;-73
2022/09/16 04:26:42;;;;;;;12.15;3.25;;;;;;;11.27;100.00;100756.81;4989147;28;20030;-75
2022/09/16 04:29:08;;;;;;;6.22;2.15;;;;;;;11.21;100.00;100751.47;4988380;28;20038;-75
2022/09/16 04:31:34;;;;;;;7.10;2.00;;;;;;;11.19;100.00;100748.19;5004043;28;20026;-75
2022/09/16 04:34:03;;;;;;;8.65;2.15;;;;;;;11.18;100.00;100752.56;4988389;28;20407;-75
2022/09/16 04:36:29;;;;;;;9.52;2.28;;;;;;;11.23;99.21;100750.31;4972096;28;20137;-75
2022/09/16 04:38:54;;;;;;;6.97;2.28;;;;;;;11.22;98.95;100758.25;4988575;28;20073;-73
2022/09/16 04:41:22;;;;;;;11.88;2.25;;;;;;;11.21;99.21;100761.84;4988280;28;20403;-74
2022/09/16 04:43:54;;;;;;;9.95;2.97;;;;;;;11.18;99.38;100752.56;4969603;28;20031;-74
2022/09/16 04:46:20;;;;;;;8.82;2.05;;;;;;;11.18;98.87;100760.38;4985993;28;20033;-74
2022/09/16 04:48:47;;;;;;;19.95;2.13;;;;;;;11.31;97.27;100757.28;4988832;28;20042;-73
2022/09/16 04:51:13;;;;;;;7.43;1.98;;;;;;;11.34;96.98;100754.38;4989339;28;20035;-73
2022/09/16 04:53:40;;;;;;;9.77;2.00;;;;;;;11.32;96.75;100753.75;4989177;28;20042;-74
2022/09/16 04:56:16;;;;;;;11.38;1.70;;;;;;;11.30;96.44;100755.66;5003305;28;20034;-74
2022/09/16 04:58:43;;;;;;;9.73;2.40;;;;;;;11.20;97.16;100750.63;4987378;28;20038;-73
2022/09/16 05:01:11;;;;;;;12.15;3.67;;;;;;;11.20;97.02;100760.22;4985351;28;20461;-74
2022/09/16 05:03:48;;;;;;;5.53;1.52;;;;;;;11.18;97.35;100752.56;4989790;28;20041;-73
2022/09/16 05:06:17;;;;;;;8.85;1.98;;;;;;;11.25;96.81;100752.75;4990845;28;20724;-74
2022/09/16 05:08:42;;;;;;;9.10;2.00;;;;;;;11.28;97.04;100752.41;4985835;28;20626;-73
2022/09/16 05:11:14;;;;;;;5.35;1.73;;;;;;;11.24;96.73;100746.72;4985907;28;20117;-74
2022/09/16 05:13:39;;;;;;;5.93;1.63;;;;;;;11.33;96.47;100754.53;4984104;28;20034;-75
2022/09/16 05:16:10;;;;;;;7.15;1.55;;;;;;;11.30;96.20;100758.25;4987683;28;20038;-75
2022/09/16 05:18:38;;;;;;;10.38;2.08;;;;;;;11.22;96.51;100750.47;4987107;28;20046;-74
2022/09/16 05:21:06;;;;;;;7.80;1.40;;;;;;;11.34;96.03;100756.97;4986928;28;20034;-75
2022/09/16 05:23:31;;;;;;;9.10;1.80;;;;;;;11.28;94.88;100753.25;4980294;28;20530;-74
2022/09/16 05:26:06;;;;;;;6.80;1.40;;;;;;;11.34;94.57;100753.56;4988020;28;20096;-74
2022/09/16 05:28:33;;;;;;;6.60;1.52;;;;;;;11.31;94.29;100752.09;4970949;28;20034;-74
2022/09/16 05:31:19;;;;;;;4.05;1.00;;;;;;;11.28;94.19;100757.59;4988847;28;20046;-73
2022/09/16 05:33:51;;;;;;;7.13;1.48;;;;;;;11.38;93.66;100755.69;4979180;28;20685;-72
2022/09/16 05:36:17;;;;;;;8.65;2.00;;;;;;;11.38;93.10;100758.28;4969378;28;20038;-73
2022/09/16 05:38:43;;;;;;;11.85;2.75;;;;;;;11.32;93.14;100758.09;4989687;28;20660;-74
2022/09/16 05:41:09;;;;;;;6.05;1.02;;;;;;;11.30;93.94;100760.84;4971048;28;20034;-72
2022/09/16 05:43:36;;;;;;;7.63;1.83;;;;;;;11.28;93.74;100761.03;4986456;28;20038;-74
2022/09/16 05:46:02;;;;;;;6.88;1.60;;;;;;;11.43;93.40;100765.56;4985888;28;20034;-74
2022/09/16 05:48:28;;;;;;;7.82;1.80;;;;;;;11.37;93.41;100766.22;4987075;28;20415;-73
2022/09/16 05:50:56;;;;;;;11.57;1.67;;;;;;;11.35;94.04;100768.97;4988958;28;20038;-74
2022/09/16 05:53:23;;;;;;;4.03;1.40;;;;;;;11.30;94.40;100761.69;4988861;28;20495;-74
2022/09/16 05:55:56;;;;;;;6.40;1.35;;;;;;;11.46;94.04;100767.84;4985936;28;20041;-74
2022/09/16 05:58:23;;;;;;;8.38;1.88;;;;;;;11.43;93.92;100765.56;4983845;28;20034;-74
2022/09/16 06:00:48;;;;;;;8.10;1.67;;;;;;;11.40;94.24;100769.31;4988435;28;20049;-75
2022/09/16 06:03:14;;;;;;;6.80;1.70;;;;;;;11.47;93.65;100764.25;4988094;28;20034;-74
2022/09/16 06:05:39;;;;;;;6.50;1.60;;;;;;;11.50;93.77;100767.34;4987777;28;20087;-74
2022/09/16 06:08:05;;;;;;;9.27;1.90;;;;;;;11.50;93.67;100764.75;4984704;28;20094;-74
2022/09/16 06:10:30;;;;;;;7.82;1.50;;;;;;;11.53;93.00;100766.22;4987102;28;20096;-74
2022/09/16 06:12:56;;;;;;;12.93;1.95;;;;;;;11.52;93.97;100766.38;4988986;28;20034;-73
2022/09/16 06:15:21;;;;;;;9.38;1.73;;;;;;;11.62;93.83;100773.06;4987006;28;20038;-74
2022/09/16 06:17:46;;;;;;;6.20;2.10;;;;;;;11.72;93.32;100778.06;4988026;28;20030;-75
2022/09/16 06:20:13;;;;;;;6.47;1.95;;;;;;;11.66;93.05;100778.72;4986969;28;20041;-74
2022/09/16 06:22:39;;;;;;;11.60;3.22;;;;;;;11.73;92.90;100773.69;4987729;28;20034;-74
2022/09/16 06:25:06;;;;;;;16.33;9.10;;;;;;;11.76;92.45;100773.38;4984791;28;20089;-74
2022/09/16 06:27:32;;;;;;;8.35;4.35;;;;;;;11.75;92.42;100776.91;4970382;28;20030;-73
2022/09/16 06:29:57;;;;;;;7.15;5.03;;;;;;;11.76;93.15;100773.38;4985799;28;20034;-74
2022/09/16 06:32:23;;;;;;;9.27;3.13;;;;;;;11.76;92.75;100779.34;4986290;28;20695;-72
2022/09/16 06:34:49;;;;;;;5.38;1.85;;;;;;;11.79;93.02;100775.63;4963868;28;20511;-74
2022/09/16 06:37:15;;;;;;;5.00;1.30;;;;;;;11.81;92.64;100774.50;4986381;28;20093;-74
2022/09/16 06:39:41;;;;;;;11.10;1.60;;;;;;;11.88;92.98;100775.47;4985704;28;20395;-74
2022/09/16 06:42:07;;;;;;;6.93;1.70;;;;;;;11.86;93.18;100777.38;4982276;28;20068;-74
2022/09/16 06:44:39;;;;;;;5.07;1.50;;;;;;;11.89;93.45;100776.25;4985959;28;20112;-74
2022/09/16 06:47:04;;;;;;;3.88;1.50;;;;;;;11.79;94.11;100776.44;4985670;28;20030;-74
2022/09/16 06:49:30;;;;;;;9.25;1.33;;;;;;;11.83;94.62;100777.72;4973742;28;20748;-74
2022/09/16 06:51:55;;;;;;;4.32;2.28;;;;;;;11.92;94.06;100773.34;4970998;28;20882;-74
2022/09/16 06:54:21;;;;;;;9.98;2.25;;;;;;;11.89;93.45;100771.06;4976555;28;21039;-74
2022/09/16 06:56:46;;;;;;;7.20;1.83;;;;;;;12.07;94.06;100766.50;4988071;28;20069;-75
2022/09/16 06:59:13;;;;;;;6.75;1.30;;;;;;;12.09;94.25;100763.72;4969959;28;20046;-74
2022/09/16 07:01:39;;;;;;;27.48;8.88;;;;;;;12.26;92.79;100765.31;4985979;28;20117;-74
2022/09/16 07:04:09;;;;;;;30.60;10.35;;;;;;;12.38;92.22;100775.34;4987512;28;20638;-75
2022/09/16 07:06:36;;;;;;;8.13;3.47;;;;;;;12.48;91.72;100775.16;4976253;28;20096;-74
2022/09/16 07:09:02;;;;;;;7.22;2.83;;;;;;;12.70;91.23;100777.00;4987524;28;20080;-74
2022/09/16 07:11:28;;;;;;;4.68;2.70;;;;;;;12.79;89.73;100770.78;4985581;28;20043;-73
2022/09/16 07:13:54;;;;;;;8.57;2.40;;;;;;;13.37;87.19;100762.59;4987076;28;20049;-75
2022/09/16 07:16:22;;;;;;;11.00;2.08;;;;;;;13.78;84.41;100773.47;4984113;28;20045;-72
2022/09/16 07:18:52;;;;;;;6.00;2.10;;;;;;;15.03;78.68;100773.66;4982924;28;20476;-74
2022/09/16 07:21:20;;;;;;;8.00;1.42;;;;;;;15.95;73.65;100773.66;4984969;28;20173;-75
2022/09/16 07:23:46;;;;;;;6.10;2.90;;;;;;;16.38;70.36;100779.69;4985779;28;20093;-74
2022/09/16 07:26:12;;;;;;;8.05;3.15;;;;;;;16.48;69.83;100783.56;4990925;28;20117;-73
2022/09/16 07:28:40;;;;;;;9.35;2.88;;;;;;;16.74;68.47;100782.03;4982358;28;20042;-75
2022/09/16 07:31:08;;;;;;;8.60;1.88;;;;;;;16.21;70.21;100781.81;4987250;28;20038;-75
2022/09/16 07:33:39;;;;;;;5.20;2.38;;;;;;;15.83;72.51;100783.00;4990173;28;20513;-73
2022/09/16 07:36:06;;;;;;;3.60;1.50;;;;;;;15.77;71.44;100787.19;4990426;28;20035;-74
2022/09/16 07:38:32;;;;;;;6.38;1.30;;;;;;;15.61;72.01;100779.59;4990934;28;20030;-76
2022/09/16 07:41:13;;;;;;;4.13;1.30;;;;;;;16.63;69.52;100790.44;4991094;28;20042;-74
2022/09/16 07:43:40;;;;;;;5.80;1.05;;;;;;;17.10;67.64;100786.16;4980452;28;20043;-75
2022/09/16 07:46:06;;;;;;;3.78;1.30;;;;;;;17.29;66.17;100784.56;4972302;28;20073;-74
2022/09/16 07:48:32;;;;;;;7.38;1.02;;;;;;;17.43;66.37;100793.28;4988300;28;20034;-75
2022/09/16 07:51:02;;;;;;;5.07;1.05;;;;;;;16.80;67.76;100789.13;4989882;28;20034;-75
2022/09/16 07:53:29;;;;;;;7.18;1.35;;;;;;;16.73;68.61;100783.84;4990509;28;20077;-76
2022/09/16 07:55:56;;;;;;;5.93;1.00;;;;;;;16.79;68.93;100792.72;4990550;28;20034;-76
2022/09/16 07:58:21;;;;;;;4.07;0.98;;;;;;;16.61;68.46;100795.88;4968187;28;20038;-76
2022/09/16 08:00:48;;;;;;;3.33;1.00;;;;;;;16.38;68.65;100798.81;4988034;28;20096;-76
2022/09/16 08:03:13;;;;;;;3.00;0.98;;;;;;;16.89;67.84;100802.84;4989657;28;20101;-75
2022/09/16 08:05:39;;;;;;;3.13;1.13;;;;;;;17.87;64.06;100799.72;4989822;28;20038;-75
2022/09/16 08:08:05;;;;;;;4.55;1.27;;;;;;;18.62;60.61;100794.06;4987086;28;20095;-76
2022/09/16 08:10:30;;;;;;;1.63;0.50;;;;;;;18.91;58.30;100794.53;4986865;28;20041;-74
2022/09/16 08:12:56;;;;;;;6.05;1.65;;;;;;;19.06;57.87;100787.16;4987315;28;20042;-76
2022/09/16 08:15:21;;;;;;;7.28;1.15;;;;;;;18.77;59.17;100793.78;4989270;28;20038;-76
2022/09/16 08:17:47;;;;;;;7.20;2.47;;;;;;;19.56;56.45;100792.44;4987067;28;20046;-75
2022/09/16 08:20:13;;;;;;;7.70;2.88;;;;;;;19.73;56.68;100792.75;4969256;28;20045;-74
2022/09/16 08:22:38;;;;;;;13.15;3.92;;;;;;;19.90;56.14;100800.06;4989723;28;20664;-76
2022/09/16 08:25:04;;;;;;;9.52;2.45;;;;;;;19.30;56.29;100795.31;4984687;28;20049;-75
2022/09/16 08:27:29;;;;;;;22.20;7.57;;;;;;;18.92;57.42;100802.22;4980997;28;20042;-76
2022/09/16 08:29:55;;;;;;;2.92;1.15;;;;;;;17.70;60.56;100801.94;4989111;28;20054;-74
2022/09/16 08:32:20;;;;;;;35.85;13.57;;;;;;;16.92;63.05;100810.31;4983850;28;20092;-75
2022/09/16 08:34:46;;;;;;;6.00;2.90;;;;;;;16.57;64.88;100807.75;4985279;28;20038;-75
2022/09/16 08:37:12;;;;;;;4.68;0.82;;;;;;;16.56;66.19;100808.75;4981411;28;20022;-75
2022/09/16 08:39:37;;;;;;;6.07;1.13;;;;;;;16.91;65.61;100801.66;5002301;28;20057;-75
2022/09/16 08:42:18;;;;;;;3.92;1.50;;;;;;;17.55;63.62;100810.00;4988730;28;20041;-75
2022/09/16 08:45:13;;;;;;;3.05;0.90;;;;;;;18.62;58.97;100794.06;4982993;28;20030;-75
2022/09/16 08:47:50;;;;;;;6.40;0.45;;;;;;;19.40;56.59;100799.06;5003663;28;20068;-76
2022/09/16 08:50:37;;;;;;;3.67;0.70;;;;;;;19.30;55.71;100809.25;4970937;28;20399;-76
2022/09/16 08:53:12;;;;;;;13.23;0.80;;;;;;;19.40;56.14;100809.59;4988033;28;20046;-76
2022/09/16 08:55:41;;;;;;;3.67;0.65;;;;;;;19.60;53.80;100813.88;4987668;28;20129;-75
2022/09/16 08:58:36;;;;;;;1.25;0.45;;;;;;;19.84;53.99;100814.91;4982279;28;20500;-75
2022/09/16 09:01:10;;;;;;;3.95;0.93;;;;;;;20.03;53.26;100808.63;4988376;28;20030;-76
2022/09/16 09:03:38;;;;;;;2.95;0.50;;;;;;;19.86;54.47;100812.06;4986970;28;20030;-76
2022/09/16 09:06:21;;;;;;;5.63;0.80;;;;;;;19.83;54.17;100818.53;4972214;28;20049;-77
2022/09/16 09:09:08;;;;;;;4.15;0.57;;;;;;;19.92;53.66;100819.06;4983171;28;20714;-75
2022/09/16 09:11:49;;;;;;;3.40;1.08;;;;;;;19.58;53.69;100814.06;4987794;28;20036;-75
2022/09/16 09:14:45;;;;;;;3.63;0.50;;;;;;;19.87;54.85;100811.03;4985281;28;20140;-76
2022/09/16 09:17:32;;;;;;;8.07;0.90;;;;;;;19.67;55.34;100826.97;4981463;28;20047;-76
2022/09/16 09:20:22;;;;;;;6.07;0.98;;;;;;;19.75;53.87;100818.84;4986260;28;20061;-76
2022/09/16 09:23:15;;;;;;;5.30;0.50;;;;;;;19.45;54.66;100819.44;4984480;28;20510;-75
2022/09/16 09:25:53;;;;;;;8.23;2.15;;;;;;;19.47;55.33;100825.28;4990686;28;20092;-76
2022/09/16 09:28:56;;;;;;;8.63;1.35;;;;;;;19.03;55.59;100819.13;4984560;28;20091;-76
2022/09/16 09:31:31;;;;;;;3.72;0.50;;;;;;;18.83;56.63;100813.97;4986681;28;20038;-76
2022/09/16 09:34:11;;;;;;;8.18;0.50;;;;;;;18.47;57.48;100813.50;4982005;28;20100;-76
2022/09/16 09:36:52;;;;;;;4.07;0.70;;;;;;;18.55;57.54;100809.81;4987705;28;20041;-76
2022/09/16 09:39:46;;;;;;;1.08;0.40;;;;;;;18.33;58.30;100814.56;4984191;28;20484;-75
2022/09/16 09:42:20;;;;;;;1.13;0.40;;;;;;;18.26;58.04;100811.94;4988509;28;20042;-76
2022/09/16 09:45:02;;;;;;;3.95;0.40;;;;;;;18.11;59.16;100810.59;4987254;28;20629;-75
2022/09/16 09:47:34;;;;;;;3.08;0.95;;;;;;;18.59;58.53;100803.16;4987294;28;20034;-76
2022/09/16 09:50:15;;;;;;;4.45;0.40;;;;;;;18.37;56.27;100804.47;4987795;28;20050;-77
2022/09/16 09:53:18;;;;;;;1.42;0.40;;;;;;;17.96;56.92;100798.50;5000682;28;20316;-74
2022/09/16 09:55:44;;;;;;;7.20;1.17;;;;;;;17.50;57.29;100805.38;4982637;28;20042;-76
2022/09/16 09:58:22;;;;;;;4.15;0.70;;;;;;;17.78;57.07;100800.91;4987636;28;20045;-76
2022/09/16 10:00:47;;;;;;;9.50;1.67;;;;;;;18.01;56.24;100796.06;4987626;28;20034;-76
2022/09/16 10:03:16;;;;;;;7.38;1.92;;;;;;;17.77;58.77;100807.19;4970892;28;20093;-76
2022/09/16 10:05:42;;;;;;;4.63;0.77;;;;;;;17.46;59.07;100798.94;4980495;28;20036;-76
2022/09/16 10:08:20;;;;;;;4.07;0.77;;;;;;;17.65;61.18;100796.47;4984717;28;20506;-76
2022/09/16 10:10:51;;;;;;;3.50;0.85;;;;;;;18.08;59.21;100796.88;4985209;28;20169;-75
2022/09/16 10:13:18;;;;;;;3.35;0.70;;;;;;;18.22;59.09;100791.59;4986661;28;20038;-77
2022/09/16 10:15:44;;;;;;;6.38;0.70;;;;;;;18.51;57.97;100789.47;4985948;28;20037;-75
2022/09/16 10:18:13;;;;;;;6.20;1.67;;;;;;;18.39;57.89;100787.47;4987692;28;20026;-76
2022/09/16 10:20:42;;;;;;;5.38;0.70;;;;;;;18.59;55.12;100787.41;4987389;28;20034;-76
2022/09/16 10:23:15;;;;;;;2.72;0.50;;;;;;;18.76;54.93;100786.91;4983146;28;20030;-75
2022/09/16 10:25:41;;;;;;;5.63;0.95;;;;;;;18.83;54.57;100788.50;4984559;28;20524;-76
2022/09/16 10:28:24;;;;;;;1.38;0.47;;;;;;;18.90;53.02;100791.13;4983686;28;20030;-74
2022/09/16 10:30:56;;;;;;;3.72;1.27;;;;;;;18.64;53.59;100790.19;4983045;28;20388;-74
2022/09/16 10:33:27;;;;;;;4.38;0.40;;;;;;;18.20;56.42;100791.00;4986729;28;20578;-74
2022/09/16 10:36:20;;;;;;;4.03;0.50;;;;;;;18.44;55.18;100790.31;4982535;28;20030;-76
2022/09/16 10:38:52;;;;;;;4.55;0.60;;;;;;;18.37;52.81;100786.09;4979055;28;20137;-75
2022/09/16 10:41:48;;;;;;;5.80;0.60;;;;;;;18.50;52.83;100780.78;4987123;28;20041;-74
2022/09/16 10:44:20;;;;;;;3.58;0.50;;;;;;;18.55;52.36;100782.78;4986192;28;20047;-76
2022/09/16 10:47:17;;;;;;;4.10;1.05;;;;;;;18.73;52.53;100777.63;4987469;28;20129;-76
2022/09/16 10:49:49;;;;;;;6.53;0.70;;;;;;;18.41;52.88;100774.94;4984761;28;20424;-75
2022/09/16 10:52:17;;;;;;;4.47;0.50;;;;;;;18.09;53.46;100776.69;4985793;28;20049;-76
2022/09/16 10:54:43;;;;;;;2.70;0.57;;;;;;;17.89;56.65;100776.72;4986912;28;20500;-75
2022/09/16 10:57:30;;;;;;;2.35;0.40;;;;;;;17.71;57.17;100778.13;4964672;28;20047;-76
2022/09/16 11:00:09;;;;;;;3.78;0.77;;;;;;;17.58;57.10;100774.72;4984373;28;20549;-76
2022/09/16 11:03:12;;;;;;;4.47;0.43;;;;;;;17.90;58.29;100775.72;4970364;28;20467;-75
2022/09/16 11:06:09;;;;;;;1.10;0.35;;;;;;;18.31;56.61;100785.09;4985493;28;20030;-76
2022/09/16 11:08:48;;;;;;;4.25;0.55;;;;;;;18.46;52.55;100777.78;4983395;28;20030;-76
2022/09/16 11:11:44;;;;;;;5.93;0.70;;;;;;;18.36;53.07;100776.59;4972569;28;20039;-77
2022/09/16 11:14:17;;;;;;;0.93;0.30;;;;;;;17.97;54.10;100789.63;4980853;28;20125;-76
2022/09/16 11:17:01;;;;;;;2.67;0.65;;;;;;;17.62;55.99;100792.47;4986423;28;20449;-76
2022/09/16 11:19:53;;;;;;;4.03;0.70;;;;;;;17.57;57.28;100801.94;4986303;28;20034;-76
2022/09/16 11:22:25;;;;;;;5.40;0.60;;;;;;;17.30;65.28;100823.69;4964286;28;20058;-77
2022/09/16 11:25:21;;;;;;;7.22;0.65;;;;;;;16.28;66.45;100854.09;4982273;28;20042;-73
2022/09/16 11:28:14;;;;;;;4.60;0.30;;;;;;;15.55;70.42;100880.47;4975368;28;20472;-77
2022/09/16 11:30:47;;;;;;;;;;;;;;;14.84;72.02;100885.50;4980562;28;20053;-74
2022/09/16 11:33:21;;;;;;;8.00;0.50;;;;;;;14.45;76.34;100898.78;4987347;28;20362;-76
2022/09/16 11:36:13;;;;;;;3.65;0.45;;;;;;;14.35;76.97;100894.69;4984382;28;20635;-75
2022/09/16 11:38:53;;;;;;;2.87;0.37;;;;;;;14.33;78.37;100898.44;4983647;28;20078;-77
2022/09/16 11:41:18;;;;;;;2.90;0.40;;;;;;;14.13;79.28;100895.53;4971655;28;20039;-77
2022/09/16 11:43:56;;;;;;;3.50;0.77;;;;;;;14.10;81.16;100883.66;4987004;28;20113;-77
2022/09/16 11:46:29;;;;;;;1.50;0.80;;;;;;;14.15;80.28;100883.94;4984224;28;20423;-77
2022/09/16 11:48:55;;;;;;;4.47;0.90;;;;;;;14.15;81.94;100878.72;4967945;28;20034;-78